Time;durP1;ratioP1;P1;durP2;ratioP2;P2;SDS_P1;SDS_P2;PMS_P1;PMS_P2;Temp;Humidity;BMP_temperature;BMP_pressure;BME280_temperature;BME280_humidity;BME280_pressure;Samples;Min_cycle;Max_cycle;Signal;HPM_P1;HPM_P2
2023/12/03 00:00:08;;;;;;;21.87;13.70;;;-1.40;99.90;;;-141.84;100.00;93169.38;5031756;28;20305;-62
2023/12/03 00:02:38;;;;;;;21.53;13.87;;;-1.30;99.90;;;-141.84;100.00;92904.41;5031985;28;20316;-61
2023/12/03 00:05:08;;;;;;;21.37;13.57;;;-1.30;99.90;;;-141.84;100.00;93964.47;5032319;28;20245;-61
2023/12/03 00:07:38;;;;;;;20.93;13.87;;;-1.30;99.90;;;-141.84;100.00;92904.41;5032424;28;20187;-60
2023/12/03 00:10:09;;;;;;;23.13;15.40;;;-1.30;99.90;;;-141.84;100.00;92109.53;5019085;28;20233;-62
2023/12/03 00:12:38;;;;;;;21.73;13.60;;;-1.20;99.90;;;-141.84;100.00;90785.09;5012056;28;20650;-61
2023/12/03 00:15:08;;;;;;;25.00;14.83;;;-1.10;99.90;;;-141.84;100.00;92109.53;5011938;28;20239;-61
2023/12/03 00:17:37;;;;;;;23.63;15.10;;;-1.20;99.90;;;-141.84;100.00;94494.59;5012312;28;20235;-60
2023/12/03 00:20:07;;;;;;;21.67;14.83;;;-1.20;99.90;;;-141.84;100.00;91049.97;5011951;28;20269;-61
2023/12/03 00:22:35;;;;;;;23.10;14.43;;;-1.10;99.90;;;-141.84;100.00;91844.63;5012595;28;20246;-61
2023/12/03 00:25:04;;;;;;;22.60;14.83;;;-1.10;99.90;;;-141.84;100.00;94759.69;4992267;28;20250;-63
2023/12/03 00:27:33;;;;;;;26.57;16.37;;;-1.10;99.90;;;-141.84;100.00;98472.84;5007994;28;20408;-62
2023/12/03 00:30:01;;;;;;;23.37;14.90;;;-1.10;99.90;;;-141.84;100.00;101127.16;5011804;28;20230;-61
2023/12/03 00:32:29;;;;;;;23.43;14.87;;;-1.10;99.90;;;-141.84;100.00;103251.88;5011846;28;20238;-62
2023/12/03 00:34:58;;;;;;;25.47;16.10;;;-1.20;99.90;;;-141.84;100.00;102986.25;5011545;28;20238;-62
2023/12/03 00:37:26;;;;;;;23.70;15.07;;;-1.10;99.90;;;-141.84;100.00;104048.94;5011946;28;20231;-61
2023/12/03 00:39:54;;;;;;;24.97;14.90;;;-1.10;99.90;;;-141.84;100.00;104314.66;5011148;28;20305;-61
2023/12/03 00:42:22;;;;;;;21.83;13.97;;;-1.10;99.90;;;-141.84;100.00;102720.59;5011306;28;20235;-61
2023/12/03 00:44:52;;;;;;;22.60;13.03;;;-1.00;99.90;;;-141.84;100.00;100065.22;5012157;28;20273;-61
2023/12/03 00:47:20;;;;;;;19.60;13.00;;;-1.10;99.90;;;-141.84;100.00;99268.97;5011597;28;20309;-61
2023/12/03 00:49:48;;;;;;;20.60;12.90;;;-1.10;99.90;;;-141.84;100.00;101923.81;5011473;28;20253;-61
2023/12/03 00:52:16;;;;;;;21.73;13.90;;;-1.10;99.90;;;-141.84;100.00;105377.72;5012091;28;20225;-61
2023/12/03 00:54:45;;;;;;;21.47;14.67;;;-1.10;99.90;;;-141.84;100.00;104846.16;5011420;28;20254;-61
2023/12/03 00:57:13;;;;;;;23.10;13.80;;;-1.00;99.90;;;-141.84;100.00;103517.56;5011263;28;20310;-61
2023/12/03 00:59:43;;;;;;;21.43;13.60;;;-1.00;99.90;;;-141.84;100.00;104048.94;5027596;28;20769;-61
2023/12/03 01:02:12;;;;;;;21.43;12.93;;;-1.10;99.90;;;-141.84;100.00;105643.53;5031136;28;20341;-60
2023/12/03 01:04:41;;;;;;;21.20;14.23;;;-1.00;99.90;;;-141.84;100.00;107770.63;5031391;28;20209;-60
2023/12/03 01:07:09;;;;;;;25.10;14.07;;;-1.00;99.90;;;-141.84;100.00;108834.56;5031623;28;20202;-61
2023/12/03 01:09:37;;;;;;;23.23;14.27;;;-1.00;99.90;;;-141.84;100.00;110431.03;5021861;28;20589;-61
2023/12/03 01:12:06;;;;;;;23.73;13.93;;;-1.00;99.90;;;-141.84;100.00;109366.66;5011014;28;20586;-61
2023/12/03 01:14:34;;;;;;;22.67;13.83;;;-1.00;99.90;;;-141.84;100.00;107504.66;5010499;28;20766;-62
2023/12/03 01:17:03;;;;;;;21.67;14.40;;;-1.00;99.90;;;-141.84;100.00;107238.72;5011002;28;20277;-61
2023/12/03 01:19:32;;;;;;;20.57;13.53;;;-1.00;99.90;;;-141.84;100.00;107770.63;5011729;28;20300;-62
2023/12/03 01:22:01;;;;;;;20.40;13.80;;;-1.00;99.90;;;-141.84;100.00;107770.63;5010857;28;20234;-61
2023/12/03 01:24:29;;;;;;;20.53;13.97;;;-0.90;99.90;;;-141.84;100.00;105909.34;5010328;28;20257;-61
2023/12/03 01:26:58;;;;;;;23.77;14.37;;;-0.90;99.90;;;-141.84;100.00;107504.66;5010422;28;20231;-62
2023/12/03 01:29:26;;;;;;;21.23;13.60;;;-1.00;99.90;;;-141.84;100.00;105111.94;5010675;28;20287;-62
2023/12/03 01:31:54;;;;;;;21.93;13.27;;;-0.90;99.90;;;-141.84;100.00;105909.34;5010569;28;20666;-61
2023/12/03 01:34:22;;;;;;;19.97;13.10;;;-1.00;99.90;;;-141.84;100.00;106441.06;5011131;28;20276;-60
2023/12/03 01:36:52;;;;;;;19.03;12.93;;;-0.90;99.90;;;-141.84;100.00;107770.63;5010172;28;20274;-61
2023/12/03 01:39:20;;;;;;;20.93;13.90;;;-1.00;99.90;;;-141.84;100.00;106441.06;5010407;28;20229;-61
2023/12/03 01:41:51;;;;;;;24.27;14.50;;;-0.90;99.90;;;-141.84;100.00;106175.19;5010602;28;20305;-61
2023/12/03 01:44:20;;;;;;;23.03;13.80;;;-0.90;99.90;;;-141.84;100.00;106441.06;5023343;28;20719;-61
2023/12/03 01:46:50;;;;;;;22.07;14.00;;;-0.90;99.90;;;-141.84;100.00;104314.66;5030332;28;20194;-62
2023/12/03 01:49:19;;;;;;;24.33;14.53;;;-0.90;99.90;;;-141.84;100.00;105643.53;5030657;28;20190;-61
2023/12/03 01:51:48;;;;;;;21.43;13.50;;;-0.90;99.90;;;-141.84;100.00;106175.19;5017567;28;20228;-61
2023/12/03 01:54:18;;;;;;;20.90;13.97;;;-0.90;99.90;;;-141.84;100.00;105909.34;5008992;28;20698;-61
2023/12/03 01:56:49;;;;;;;22.47;14.27;;;-0.90;99.90;;;-141.84;100.00;105909.34;5008902;28;20234;-61
2023/12/03 01:59:17;;;;;;;24.63;14.13;;;-0.90;99.90;;;-141.84;100.00;104314.66;5005271;28;20250;-61
2023/12/03 02:01:45;;;;;;;24.67;15.07;;;-0.90;99.90;;;-141.84;100.00;103517.56;5010078;28;20593;-62
2023/12/03 02:04:13;;;;;;;23.93;14.03;;;-0.90;99.90;;;-141.84;100.00;104846.16;5010999;28;20237;-61
2023/12/03 02:06:42;;;;;;;24.53;15.00;;;-0.90;99.90;;;-141.84;100.00;103783.25;5010001;28;20591;-61
2023/12/03 02:09:10;;;;;;;24.20;14.47;;;-0.90;99.90;;;-141.84;100.00;105111.94;5009980;28;20309;-61
2023/12/03 02:11:39;;;;;;;21.37;13.53;;;-0.90;99.90;;;-141.84;100.00;107238.72;5010029;28;20230;-61
2023/12/03 02:14:08;;;;;;;24.00;14.33;;;-1.00;99.90;;;-141.84;100.00;108568.56;5002979;28;20278;-61
2023/12/03 02:16:36;;;;;;;23.93;13.80;;;-0.90;99.90;;;-141.84;100.00;109100.59;4990618;28;20541;-61
2023/12/03 02:19:05;;;;;;;23.47;13.63;;;-0.90;99.90;;;-141.84;100.00;107770.63;4971358;28;20727;-60
2023/12/03 02:21:33;;;;;;;23.07;14.27;;;-0.90;99.90;;;-141.84;100.00;108302.56;4997071;28;20222;-61
2023/12/03 02:24:03;;;;;;;21.73;14.80;;;-0.90;99.90;;;-141.84;100.00;105909.34;5009901;28;20226;-61
2023/12/03 02:26:31;;;;;;;23.10;14.90;;;-0.90;99.90;;;-141.84;100.00;104846.16;5009903;28;20389;-61
2023/12/03 02:28:59;;;;;;;23.50;14.60;;;-0.90;99.90;;;-141.84;100.00;104314.66;5010373;28;20284;-61
2023/12/03 02:31:30;;;;;;;22.50;14.17;;;-0.90;99.90;;;-141.84;100.00;105377.72;5010098;28;20204;-60
2023/12/03 02:34:07;;;;;;;21.23;13.73;;;-0.90;99.90;;;-141.84;100.00;106441.06;4991153;28;20234;-61
2023/12/03 02:36:35;;;;;;;23.40;13.87;;;-0.90;99.90;;;-141.84;100.00;105909.34;5000302;28;20247;-60
2023/12/03 02:39:05;;;;;;;25.60;14.70;;;-0.90;99.90;;;-141.84;100.00;105643.53;5010292;28;20305;-60
2023/12/03 02:41:34;;;;;;;21.87;14.50;;;-0.90;99.90;;;-141.84;100.00;105643.53;5013868;28;20254;-61
2023/12/03 02:44:02;;;;;;;25.50;14.93;;;-0.90;99.90;;;-141.84;100.00;106706.94;5024275;28;20914;-60
2023/12/03 02:46:30;;;;;;;22.40;14.07;;;-0.90;99.90;;;-141.84;100.00;106706.94;5013938;28;20580;-61
2023/12/03 02:48:59;;;;;;;23.83;14.77;;;-0.90;99.90;;;-141.84;100.00;106175.19;4993965;28;20241;-62
2023/12/03 02:51:27;;;;;;;22.53;14.13;;;-0.90;99.90;;;-141.84;100.00;103251.88;4993769;28;20289;-80
2023/12/03 02:53:55;;;;;;;24.43;14.97;;;-0.90;99.90;;;-141.84;100.00;102189.38;4994879;28;20722;-77
2023/12/03 02:56:25;;;;;;;20.53;13.67;;;-0.90;99.90;;;-141.84;100.00;101923.81;4994873;28;20229;-77
2023/12/03 02:58:53;;;;;;;22.40;14.10;;;-0.90;99.90;;;-141.84;100.00;99534.38;5004927;28;20205;-81
2023/12/03 03:01:21;;;;;;;21.97;14.10;;;-1.00;99.90;;;-141.84;100.00;98738.19;5015195;28;20234;-76
2023/12/03 03:03:49;;;;;;;23.07;14.00;;;-1.00;99.90;;;-141.84;100.00;99534.38;5013408;28;20309;-61
2023/12/03 03:06:17;;;;;;;20.87;12.83;;;-1.00;99.90;;;-141.84;100.00;95555.09;5013282;28;20309;-61
2023/12/03 03:08:46;;;;;;;22.83;13.90;;;-1.00;99.90;;;-141.84;100.00;89461.13;5013128;28;20228;-60
2023/12/03 03:11:14;;;;;;;22.57;13.63;;;-1.00;99.90;;;-141.84;100.00;86285.31;5013293;28;20341;-62
2023/12/03 03:13:43;;;;;;;22.67;14.13;;;-1.00;99.90;;;-141.84;100.00;86020.75;5013012;28;20302;-62
2023/12/03 03:16:11;;;;;;;21.97;13.60;;;-1.00;99.90;;;-141.84;100.00;87872.91;5013030;28;20290;-61
2023/12/03 03:18:40;;;;;;;22.87;14.20;;;-1.00;99.90;;;-141.84;100.00;84169.50;5018424;28;20707;-62
2023/12/03 03:21:09;;;;;;;22.37;14.07;;;-1.00;99.90;;;-141.84;100.00;83376.34;5021851;28;20894;-62
2023/12/03 03:23:37;;;;;;;21.90;13.43;;;-1.00;99.90;;;-141.84;100.00;82847.66;5033035;28;20225;-62
2023/12/03 03:26:06;;;;;;;23.57;14.13;;;-1.10;99.90;;;-141.84;100.00;81262.06;5028704;28;20231;-61
2023/12/03 03:28:34;;;;;;;23.17;14.03;;;-1.10;99.90;;;-141.84;100.00;80469.50;5026210;28;20328;-60
2023/12/03 03:31:04;;;;;;;20.97;13.63;;;-1.10;99.90;;;-141.84;100.00;80205.34;5006432;28;20215;-62
2023/12/03 03:33:32;;;;;;;20.73;12.67;;;-1.10;99.90;;;-141.84;100.00;73607.09;5015116;28;20277;-61
2023/12/03 03:36:00;;;;;;;20.27;12.67;;;-1.10;99.90;;;-141.84;100.00;76245.09;5019635;28;20495;-61
2023/12/03 03:38:28;;;;;;;22.80;13.43;;;-1.20;99.90;;;-141.84;100.00;80469.50;5014321;28;20364;-61
2023/12/03 03:40:57;;;;;;;19.57;12.57;;;-1.30;99.90;;;-141.84;100.00;85227.25;5011840;28;20461;-61
2023/12/03 03:43:26;;;;;;;19.93;13.17;;;-1.40;99.90;;;-141.84;100.00;89990.66;5017722;28;20240;-61
2023/12/03 03:45:54;;;;;;;20.90;12.60;;;-1.60;99.90;;;-141.84;100.00;92904.41;5021282;28;20760;-61
2023/12/03 03:48:24;;;;;;;21.93;13.60;;;-1.60;99.90;;;-141.84;100.00;96615.84;5031317;28;20226;-60
2023/12/03 03:50:52;;;;;;;22.00;13.03;;;-1.80;99.90;;;-141.84;100.00;99268.97;5026147;28;20230;-62
2023/12/03 03:53:20;;;;;;;21.30;13.43;;;-1.80;99.90;;;-141.84;100.00;101658.25;5011402;28;20304;-60
2023/12/03 03:55:49;;;;;;;22.20;14.07;;;-1.90;99.90;;;-141.84;100.00;102720.59;5011250;28;20301;-62
2023/12/03 03:58:17;;;;;;;21.97;13.13;;;-2.00;99.90;;;-141.84;100.00;101923.81;5017099;28;20210;-61
2023/12/03 04:00:46;;;;;;;21.10;12.73;;;-2.00;99.90;;;-141.84;100.00;101658.25;5031115;28;20267;-61
2023/12/03 04:03:14;;;;;;;22.17;13.53;;;-2.00;99.90;;;-141.84;100.00;102455.00;5030981;28;20258;-61
2023/12/03 04:05:44;;;;;;;21.40;12.90;;;-2.10;99.90;;;-141.84;100.00;102189.38;5031000;28;20229;-61
2023/12/03 04:08:12;;;;;;;25.17;14.23;;;-2.10;99.90;;;-141.84;100.00;102455.00;5031014;28;20313;-61
2023/12/03 04:10:40;;;;;;;21.97;13.30;;;-2.10;99.90;;;-141.84;100.00;103783.25;5013699;28;20250;-61
2023/12/03 04:13:08;;;;;;;22.13;13.63;;;-2.20;99.90;;;-141.84;100.00;105377.72;5011284;28;20279;-59
2023/12/03 04:15:37;;;;;;;23.10;12.97;;;-2.30;99.90;;;-141.84;100.00;106972.81;5009347;28;20738;-61
2023/12/03 04:18:05;;;;;;;24.27;14.30;;;-2.30;99.90;;;-141.84;100.00;107504.66;5010569;28;20580;-61
2023/12/03 04:20:33;;;;;;;21.27;12.47;;;-2.30;99.90;;;-141.84;100.00;106175.19;5011178;28;20226;-60
2023/12/03 04:23:03;;;;;;;22.10;13.00;;;-2.30;99.90;;;-141.84;100.00;106972.81;4998536;28;20234;-61
2023/12/03 04:25:32;;;;;;;20.60;13.17;;;-2.30;99.90;;;-141.84;100.00;108302.56;5004605;28;20396;-61
2023/12/03 04:28:00;;;;;;;21.10;12.70;;;-2.30;99.90;;;-141.84;100.00;109632.72;5009235;28;20250;-61
2023/12/03 04:30:28;;;;;;;22.37;14.07;;;-2.30;99.90;;;-141.84;100.00;110431.03;5010835;28;20261;-60
2023/12/03 04:32:56;;;;;;;25.70;15.07;;;-2.30;99.90;;;-141.84;100.00;110963.31;4973930;28;1078888;-61
2023/12/03 04:35:24;;;;;;;23.87;14.47;;;-2.30;99.90;;;-141.84;100.00;110431.03;5011725;28;20241;-61
2023/12/03 04:37:53;;;;;;;25.53;14.50;;;-2.20;99.90;;;-141.84;100.00;110164.91;4996971;28;20241;-61
2023/12/03 04:40:22;;;;;;;26.43;15.27;;;-2.20;99.90;;;-141.84;100.00;110164.91;5004335;28;20281;-60
2023/12/03 04:42:50;;;;;;;24.23;14.93;;;-2.20;99.90;;;-141.84;100.00;104580.41;5012537;28;20250;-61
2023/12/03 04:45:18;;;;;;;24.37;15.00;;;-2.20;99.90;;;-141.84;100.00;103517.56;5031427;28;20240;-61
2023/12/03 04:47:46;;;;;;;23.50;14.83;;;-2.20;99.90;;;-141.84;100.00;102455.00;5021551;28;20231;-61
2023/12/03 04:50:15;;;;;;;25.43;14.70;;;-2.20;99.90;;;-141.84;100.00;103251.88;5011641;28;20792;-61
2023/12/03 04:52:43;;;;;;;23.57;13.70;;;-2.10;99.90;;;-141.84;100.00;104048.94;5011747;28;20199;-61
2023/12/03 04:55:11;;;;;;;22.63;13.77;;;-2.10;99.90;;;-141.84;100.00;105377.72;5011926;28;20686;-61
2023/12/03 04:57:40;;;;;;;23.17;12.63;;;-2.00;99.90;;;-141.84;100.00;105909.34;5011570;28;20319;-80
2023/12/03 05:00:10;;;;;;;22.60;13.83;;;-1.90;99.90;;;-141.84;100.00;102455.00;5012486;28;20240;-80
2023/12/03 05:02:38;;;;;;;20.73;13.40;;;-1.90;99.90;;;-141.84;100.00;100596.16;5011629;28;20242;-78
2023/12/03 05:05:08;;;;;;;21.80;13.43;;;-1.90;99.90;;;-141.84;100.00;100330.69;5012485;28;20240;-80
2023/12/03 05:07:36;;;;;;;25.43;14.87;;;-1.90;99.90;;;-141.84;100.00;99799.78;5012326;28;20209;-79
2023/12/03 05:10:06;;;;;;;24.47;13.93;;;-1.90;99.90;;;-141.84;100.00;99534.38;5012211;28;20685;-83
2023/12/03 05:12:34;;;;;;;21.83;13.17;;;-1.90;99.90;;;-141.84;100.00;99003.56;5011811;28;20233;-80
2023/12/03 05:15:05;;;;;;;19.90;12.60;;;-1.80;99.90;;;-141.84;100.00;95820.25;5011631;28;20258;-78
2023/12/03 05:17:33;;;;;;;20.60;12.93;;;-1.80;99.90;;;-141.84;100.00;94494.59;5011762;28;20231;-77
2023/12/03 05:20:01;;;;;;;22.47;13.17;;;-1.70;99.90;;;-141.84;100.00;91049.97;5011471;28;20663;-79
2023/12/03 05:22:29;;;;;;;21.23;12.83;;;-1.60;99.90;;;-141.84;100.00;87343.63;5011707;28;20674;-78
2023/12/03 05:24:57;;;;;;;20.23;12.03;;;-1.60;99.90;;;-141.84;100.00;88666.94;5011211;28;20305;-79
2023/12/03 05:27:25;;;;;;;21.23;12.73;;;-1.60;99.90;;;-141.84;100.00;89196.38;5011499;28;20223;-79
2023/12/03 05:29:54;;;;;;;19.60;12.60;;;-1.50;99.90;;;-141.84;100.00;81526.28;5010997;28;20277;-81
2023/12/03 05:32:23;;;;;;;18.00;11.97;;;-1.60;99.90;;;-141.84;100.00;79677.06;5010898;28;20328;-81
2023/12/03 05:34:51;;;;;;;16.77;11.17;;;-1.60;99.90;;;-141.84;100.00;82054.78;5011104;28;20230;-77
2023/12/03 05:37:20;;;;;;;18.93;11.67;;;-1.60;99.90;;;-141.84;100.00;81790.53;5001326;28;20205;-78
2023/12/03 05:39:48;;;;;;;19.43;12.63;;;-1.60;99.90;;;-141.84;100.00;80205.34;4998288;28;20312;-77
2023/12/03 05:42:16;;;;;;;18.10;12.23;;;-1.50;99.90;;;-141.84;100.00;80469.50;5011105;28;20314;-77
2023/12/03 05:44:45;;;;;;;21.70;12.60;;;-1.50;99.90;;;-141.84;100.00;75717.34;5010963;28;20234;-81
2023/12/03 05:47:13;;;;;;;20.70;11.90;;;-1.50;99.90;;;-141.84;100.00;75717.34;5010977;28;20312;-83
2023/12/03 05:49:42;;;;;;;18.50;12.10;;;-1.50;99.90;;;-141.84;100.00;76772.88;5011005;28;20237;-81
2023/12/03 05:52:11;;;;;;;18.67;11.77;;;-1.50;99.90;;;-141.84;100.00;80469.50;5011314;28;20207;-78
2023/12/03 05:54:42;;;;;;;19.87;13.10;;;-1.50;99.90;;;-141.84;100.00;83112.00;5010586;28;20261;-79
2023/12/03 05:57:11;;;;;;;21.47;12.33;;;-1.50;99.90;;;-141.84;100.00;86549.84;5010788;28;20714;-79
2023/12/03 05:59:39;;;;;;;23.03;13.03;;;-1.50;99.90;;;-141.84;100.00;88931.63;5009718;28;20246;-62
2023/12/03 06:02:07;;;;;;;19.03;12.20;;;-1.30;99.90;;;-141.84;100.00;89725.88;5010196;28;20662;-61
2023/12/03 06:04:35;;;;;;;17.30;10.93;;;-1.50;99.90;;;-141.84;100.00;91314.81;5011086;28;20222;-61
2023/12/03 06:07:05;;;;;;;18.43;12.37;;;-1.50;99.90;;;-141.84;100.00;91314.81;5010279;28;20269;-61
2023/12/03 06:09:33;;;;;;;19.90;12.53;;;-1.50;99.90;;;-141.84;100.00;92374.47;5009956;28;20227;-62
2023/12/03 06:12:01;;;;;;;20.00;12.60;;;-1.50;99.90;;;-141.84;100.00;94494.59;5010132;28;20237;-61
2023/12/03 06:14:31;;;;;;;17.97;11.67;;;-1.50;99.90;;;-141.84;100.00;95555.09;5009713;28;20242;-60
2023/12/03 06:16:59;;;;;;;21.70;13.37;;;-1.50;99.90;;;-141.84;100.00;96085.44;5010171;28;20249;-61
2023/12/03 06:19:27;;;;;;;21.80;13.03;;;-1.50;99.90;;;-141.84;100.00;96881.06;5010220;28;20293;-61
2023/12/03 06:21:57;;;;;;;21.17;14.03;;;-1.40;99.90;;;-141.84;100.00;99534.38;5010702;28;20234;-80
2023/12/03 06:24:27;;;;;;;21.30;12.97;;;-1.50;99.90;;;-141.84;100.00;92374.47;5010738;28;20227;-82
2023/12/03 06:26:55;;;;;;;20.07;12.73;;;-1.30;99.90;;;-141.84;100.00;88666.94;5010797;28;20227;-78
2023/12/03 06:29:23;;;;;;;21.83;13.27;;;-1.30;99.90;;;-141.84;100.00;91314.81;5010284;28;20249;-80
2023/12/03 06:31:52;;;;;;;23.83;14.57;;;-1.30;99.90;;;-141.84;100.00;95555.09;5010738;28;20235;-81
2023/12/03 06:34:21;;;;;;;22.03;14.50;;;-1.30;99.90;;;-141.84;100.00;99268.97;5010894;28;20585;-78
2023/12/03 06:36:49;;;;;;;23.73;15.47;;;-1.40;99.90;;;-141.84;100.00;101658.25;5010583;28;20296;-82
2023/12/03 06:39:17;;;;;;;21.60;14.90;;;-1.30;99.90;;;-141.84;100.00;102720.59;5010544;28;20236;-81
2023/12/03 06:41:47;;;;;;;23.87;14.77;;;-1.30;99.90;;;-141.84;100.00;104048.94;5010698;28;20230;-78
2023/12/03 06:44:15;;;;;;;23.23;14.83;;;-1.30;99.90;;;-141.84;100.00;104048.94;5022979;28;20261;-81
2023/12/03 06:46:53;;;;;;;21.83;15.20;;;-1.30;99.90;;;-141.84;100.00;104314.66;5030261;28;20186;-80
2023/12/03 06:49:22;;;;;;;23.20;14.97;;;-1.30;99.90;;;-141.84;100.00;103517.56;5030756;28;20233;-77
2023/12/03 06:51:51;;;;;;;22.10;13.77;;;-1.30;99.90;;;-141.84;100.00;103251.88;5030166;28;20233;-79
2023/12/03 06:54:19;;;;;;;22.77;15.13;;;-1.20;99.90;;;-141.84;100.00;104048.94;5029891;28;20231;-76
2023/12/03 06:56:48;;;;;;;23.53;14.90;;;-1.20;99.90;;;-141.84;100.00;105111.94;5029965;28;20660;-83
2023/12/03 06:59:16;;;;;;;25.73;15.50;;;-1.20;99.90;;;-141.84;100.00;105643.53;5016919;28;20254;-77
2023/12/03 07:01:45;;;;;;;22.47;14.47;;;-1.20;99.90;;;-141.84;100.00;103251.88;5010452;28;20269;-76
2023/12/03 07:04:13;;;;;;;23.67;15.30;;;-1.10;99.90;;;-141.84;100.00;102720.59;5011575;28;20785;-78
2023/12/03 07:06:41;;;;;;;23.53;15.67;;;-1.10;99.90;;;-141.84;100.00;102455.00;5022073;28;20277;-79
2023/12/03 07:09:11;;;;;;;21.83;15.10;;;-1.10;99.90;;;-141.84;100.00;101923.81;5020364;28;20249;-61
2023/12/03 07:12:01;;;;;;;21.90;14.50;;;-1.10;99.90;;;-141.84;100.00;101923.81;5009802;28;20239;-61
2023/12/03 07:14:29;;;;;;;21.00;14.10;;;-1.10;99.90;;;-141.84;100.00;103517.56;5009731;28;20314;-61
2023/12/03 07:16:57;;;;;;;24.17;15.27;;;-1.10;99.90;;;-141.84;100.00;105377.72;5010580;28;21377;-60
2023/12/03 07:19:25;;;;;;;22.90;15.27;;;-1.10;99.90;;;-141.84;100.00;103783.25;5010305;28;20286;-62
2023/12/03 07:21:53;;;;;;;23.20;14.43;;;-1.10;99.90;;;-141.84;100.00;102986.25;5009686;28;20249;-61
2023/12/03 07:24:22;;;;;;;22.23;14.90;;;-1.00;99.90;;;-141.84;100.00;101923.81;5009607;28;20230;-61
2023/12/03 07:26:51;;;;;;;22.77;14.53;;;-1.10;99.90;;;-141.84;100.00;101923.81;5012617;28;20234;-62
2023/12/03 07:29:20;;;;;;;23.03;14.23;;;-1.00;99.90;;;-141.84;100.00;99534.38;5013091;28;20309;-62
2023/12/03 07:31:49;;;;;;;23.50;14.20;;;-1.00;99.90;;;-141.84;100.00;100596.16;5013085;28;20325;-61
2023/12/03 07:34:17;;;;;;;21.40;13.80;;;-0.90;99.90;;;-141.84;100.00;100861.66;5013554;28;20217;-61
2023/12/03 07:36:45;;;;;;;22.73;15.27;;;-0.90;99.90;;;-141.84;100.00;101658.25;5012688;28;20219;-61
2023/12/03 07:39:13;;;;;;;22.13;14.20;;;-0.90;99.90;;;-141.84;100.00;100596.16;5012731;28;20281;-62
2023/12/03 07:41:51;;;;;;;20.50;13.90;;;-0.80;99.90;;;-141.84;100.00;99799.78;5012993;28;20291;-62
2023/12/03 07:44:21;;;;;;;23.57;14.70;;;-0.80;99.90;;;-141.84;100.00;99799.78;5025654;28;20228;-61
2023/12/03 07:46:50;;;;;;;21.13;14.60;;;-0.70;99.90;;;-141.84;100.00;97676.88;5032847;28;20223;-61
2023/12/03 07:49:18;;;;;;;22.73;14.73;;;-0.70;99.90;;;-141.84;100.00;93699.44;5033198;28;20249;-61
2023/12/03 07:51:47;;;;;;;20.63;14.20;;;-0.60;99.90;;;-141.84;100.00;91579.72;5032107;28;20800;-61
2023/12/03 07:54:16;;;;;;;22.47;15.07;;;-0.60;99.90;;;-141.84;100.00;87872.91;5032287;28;20236;-61
2023/12/03 07:56:44;;;;;;;21.43;14.17;;;-0.60;99.90;;;-141.84;100.00;85227.25;5032051;28;20228;-60
2023/12/03 07:59:12;;;;;;;22.80;14.17;;;-0.50;99.90;;;-141.84;100.00;85756.25;5019271;28;20308;-61
2023/12/03 08:01:42;;;;;;;24.43;15.40;;;-0.70;99.90;;;-141.84;100.00;82054.78;5012817;28;20296;-64
2023/12/03 08:04:10;;;;;;;24.00;14.33;;;-0.70;99.90;;;-141.84;100.00;82054.78;5013270;28;20210;-61
2023/12/03 08:06:38;;;;;;;22.63;14.27;;;-0.70;99.90;;;-141.84;100.00;82583.34;5012332;28;20231;-61
2023/12/03 08:09:07;;;;;;;22.23;14.60;;;-0.60;99.90;;;-141.84;100.00;85756.25;5012281;28;20237;-61
2023/12/03 08:11:37;;;;;;;21.40;14.33;;;-0.60;99.90;;;-141.84;100.00;89461.13;5012609;28;20247;-60
2023/12/03 08:14:05;;;;;;;21.53;13.83;;;-0.50;99.90;;;-141.84;100.00;88931.63;5011923;28;20285;-61
2023/12/03 08:16:33;;;;;;;20.23;13.83;;;-0.40;99.90;;;-141.84;100.00;91314.81;5012752;28;20694;-62
2023/12/03 08:19:03;;;;;;;18.83;13.60;;;-0.30;99.90;;;-141.84;100.00;90520.28;5012287;28;20705;-61
2023/12/03 08:21:32;;;;;;;19.93;13.33;;;-0.30;99.90;;;-141.84;100.00;88666.94;5012073;28;20234;-62
2023/12/03 08:24:01;;;;;;;20.83;13.97;;;-0.20;99.90;;;-141.84;100.00;84962.78;5012148;28;20310;-62
2023/12/03 08:26:29;;;;;;;23.50;15.00;;;-0.20;99.90;;;-141.84;100.00;82583.34;5011992;28;20253;-62
2023/12/03 08:28:57;;;;;;;19.77;12.90;;;-0.10;99.90;;;-141.84;100.00;78092.72;5011792;28;20286;-62
2023/12/03 08:31:25;;;;;;;20.53;12.93;;;-0.20;99.90;;;-141.84;100.00;71761.53;5012337;28;20203;-61
2023/12/03 08:33:53;;;;;;;22.20;14.67;;;-0.10;99.90;;;-141.84;100.00;68336.31;5011737;28;20293;-61
2023/12/03 08:36:23;;;;;;;19.27;13.40;;;0.00;99.90;;;-141.84;100.00;67019.72;5010818;28;20233;-61
2023/12/03 08:38:51;;;;;;;20.70;13.00;;;-0.10;99.90;;;-141.84;100.00;61494.72;5009945;28;20548;-61
2023/12/03 08:41:19;;;;;;;19.13;12.57;;;0.00;99.90;;;-141.84;100.00;63598.59;5004324;28;20257;-62
2023/12/03 08:43:48;;;;;;;18.93;13.17;;;0.00;99.90;;;-141.84;100.00;65440.38;5004330;28;20278;-61
2023/12/03 08:46:16;;;;;;;18.03;12.63;;;0.00;99.90;;;-141.84;100.00;62809.50;5012162;28;20226;-61
2023/12/03 08:48:45;;;;;;;19.07;12.70;;;0.00;99.90;;;-141.84;98.73;54402.44;5011493;28;20311;-62
2023/12/03 08:51:14;;;;;;;17.83;13.07;;;0.10;99.90;;;-141.84;98.07;48108.81;5011568;28;20233;-62
2023/12/03 08:53:44;;;;;;;21.30;13.60;;;0.10;99.90;;;-141.84;97.16;43395.16;5011753;28;20779;-61
2023/12/03 08:56:13;;;;;;;20.10;13.70;;;0.20;99.90;;;-141.84;97.30;43395.16;5011065;28;20239;-61
2023/12/03 08:58:42;;;;;;;20.87;13.40;;;0.30;99.90;;;-141.84;95.78;36404.63;5011278;28;20242;-62
2023/12/03 09:01:10;;;;;;;17.87;13.30;;;0.30;99.90;;;-141.84;94.74;29308.38;5011853;28;20785;-61
2023/12/03 09:03:40;;;;;;;22.03;13.30;;;0.20;99.90;;;-141.84;94.85;29082.25;5011223;28;20234;-61
2023/12/03 09:06:10;;;;;;;20.50;13.80;;;0.50;99.90;;;-141.84;93.83;26102.97;5011254;28;20515;-61
2023/12/03 09:08:38;;;;;;;19.57;13.57;;;0.50;99.90;;;-141.84;93.70;25054.75;5010862;28;20317;-61
2023/12/03 09:11:11;;;;;;;16.10;11.87;;;0.40;99.90;;;-141.84;93.55;24505.31;5011206;28;20235;-61
2023/12/03 09:13:40;;;;;;;19.53;13.23;;;0.50;99.90;;;-141.84;92.76;23036.47;5010843;28;20681;-60
2023/12/03 09:16:09;;;;;;;17.73;12.50;;;0.40;99.90;;;-141.84;93.50;24659.97;5011683;28;20245;-62
2023/12/03 09:18:38;;;;;;;17.23;12.67;;;0.50;99.90;;;-141.84;91.37;20968.38;5011010;28;20297;-61
2023/12/03 09:21:11;;;;;;;17.80;11.77;;;0.60;99.90;;;-141.84;90.66;20226.44;5010908;28;20247;-61
2023/12/03 09:23:40;;;;;;;19.10;12.63;;;0.50;99.90;;;-141.84;91.99;21433.97;5010836;28;20592;-62
2023/12/03 09:26:09;;;;;;;16.30;11.97;;;0.80;99.90;;;-141.84;91.09;20972.47;5010861;28;20279;-62
2023/12/03 09:28:38;;;;;;;17.23;11.53;;;0.60;99.90;;;-141.84;90.69;20358.56;5010662;28;20249;-61
2023/12/03 09:31:07;;;;;;;16.87;12.13;;;0.60;99.90;;;-141.84;91.05;20663.47;5011069;28;20288;-61
2023/12/03 09:33:35;;;;;;;17.10;11.87;;;0.70;99.90;;;-141.84;90.66;20466.28;5006156;28;20733;-62
2023/12/03 09:36:05;;;;;;;19.00;12.60;;;0.70;99.90;;;-141.84;90.78;20661.44;4990933;28;20227;-61
2023/12/03 09:38:34;;;;;;;18.43;12.50;;;0.90;99.90;;;-141.84;88.97;19500.88;4971636;28;20314;-63
2023/12/03 09:41:10;;;;;;;19.23;12.03;;;1.10;99.90;;;-141.84;88.18;19204.19;4992156;28;20231;-61
2023/12/03 09:43:46;;;;;;;18.67;12.07;;;1.10;99.90;;;-141.84;86.40;18822.19;5018633;28;20194;-61
2023/12/03 09:46:14;;;;;;;21.23;14.43;;;1.10;99.90;;;-141.84;85.95;18785.59;5031180;28;20226;-62
2023/12/03 09:48:44;;;;;;;21.10;14.27;;;1.10;99.90;;;-141.84;86.14;18744.97;5029830;28;20226;-61
2023/12/03 09:51:13;;;;;;;21.27;14.73;;;1.10;99.90;;;-141.84;86.51;18779.50;5022182;28;20706;-62